Metlakatla, Alaska
Current Conditions -  °F | °C
As of 12:36 PM on Monday 20 Oct 2014 (Local Time) from PAMM Reporting Station
Broken Clouds Broken Clouds  
Wind Chill: 12°   Ceiling: 4300
Heat Index: 12°   Visibility: 10mi
Dew Point:   Wind: 8mph
Humidity: 77%   Direction: 210°SSW
Pressure: 29.43"   Gusts: NA
Location:  55.11°N, 131.58°W
Report Text: PAMM 202136Z AUTO 21007KT 10SM FEW017 SCT024 BKN043 12/08 A2943 RMK AO1
Loading
Personal Weather Stations






























Interactive Weather Map
Tropical Storm Tracking
New forecast layout! Learn more

10-Day Weather Forecast

Advertisements
Track Severe Weather on mobile